Detall de PIREP

Printer-friendly versionPDF version

[2013/11/03 11:15:00]
Flight IATA:CT0001
Pilot Number:042
Company ICAO:CAT
Aircraft Type:F70/A
PAX:18
Aircraft Registration:PFJ
Departing Airport: LEVC
Destination Airport: LEGE
Alternate Airport:LEPA
Online: VATSIM
Route:SOPET N608 LRD H110 MAMUK
Flight Level:F240
No Slew and time accel
No pause
Crash detect
Detect pilot in Cockpit between each 30 and 45 minutes
11:15 Zero fuel Weight: 72668 Lbs, Fuel Weight: 22689 Lbs
11:15 VATSIM:LEVC 031100Z 24003KT 160V300 CAVOK 25/09 Q1018 NOSIG
11:15 VATSIM:LEGE 031100Z 19007KT 140V230 9999 FEW025 BKN042 20/13 Q1017
11:16 VOICE CATALONIAN
11:21 Parking Brakes off
11:25 Take-off
11:25 Take off Weight: 94967 Lbs
11:25 Wind: 296º @ 003 Knots Heading: 296º
11:25 POS N39º 29´ 29´´ W000º 29´ 14´´
11:25 Gear Up: 168 Knots
11:25 Flaps:2 at 168 Knots
11:25 Flaps:1 at 177 Knots
11:26 Flaps:0 at 198 Knots
11:38 TOC
11:38 Fuel Weight: 20619 Lb
11:40 Wind:294º@016 Knots Heading: 013º Ground Speed: 377 Knots Altitude 24160 ft
11:55 Wind:069º@009 Knots Heading: 079º Ground Speed: 440 Knots Altitude 24130 ft
11:55 TOD
11:55 Fuel Weight: 18949 Lb
12:09 Flaps:1 at 222 Knots
12:10 Wind:165º@004 Knots Heading: 087º Ground Speed: 223 Knots Altitude 3205 ft
12:12 Gear Down: 192 Knots
12:12 Flaps:2 at 192 Knots
12:12 Flaps:3 at 185 Knots
12:15 TouchDown:Rate -50 ft/min Speed: 135 Knots
12:15 VATSIM:LEGE 031200Z 15008KT 100V210 9999 FEW028 BKN037 20/14 Q1016
12:15 Land
12:15 Wind:121º@008 Knots
12:15 Heading: 196º
12:15 Flight Duration: 00:50
12:15 Landing Weight: 90859 Lbs
12:15 POS N41º 54´ 07´´ E002º 45´ 39´´
12:19 Parking brakes on
12:19 Block to Block Duration: 00:58
12:19 Final Fuel: 18004 Lbls
12:19 Spent Fuel: 4684 Lbls
12:19 Flight Length: 277 NM
12:19 TOD Land Length: 89 NM

Exportar CSV

Powered by Drupal - Modified by Danger4k